Time;durP1;ratioP1;P1;durP2;ratioP2;P2;SDS_P1;SDS_P2;PMS_P1;PMS_P2;Temp;Humidity;BMP_temperature;BMP_pressure;BME280_temperature;BME280_humidity;BME280_pressure;Samples;Min_cycle;Max_cycle;Signal;HPM_P1;HPM_P2
2021/11/20 00:01:54;;;;;;;50.55;20.13;;;9.90;96.80;;;;;;5009108;28;20385;-88
2021/11/20 00:04:20;;;;;;;47.05;19.95;;;9.90;96.80;;;;;;5009345;28;20392;-88
2021/11/20 00:06:49;;;;;;;47.53;19.80;;;9.90;96.80;;;;;;5009055;28;20397;-89
2021/11/20 00:09:18;;;;;;;43.03;18.48;;;9.90;96.80;;;;;;5009150;28;20378;-87
2021/11/20 00:11:45;;;;;;;45.58;19.88;;;9.90;96.80;;;;;;4991684;28;20385;-89
2021/11/20 00:14:14;;;;;;;48.47;19.40;;;9.90;96.70;;;;;;5009408;28;20411;-87
2021/11/20 00:16:42;;;;;;;43.03;19.30;;;9.90;96.80;;;;;;5008996;28;20412;-89
2021/11/20 00:19:08;;;;;;;47.53;19.88;;;9.90;96.70;;;;;;5009289;28;20392;-88
2021/11/20 00:21:43;;;;;;;47.63;19.73;;;9.90;96.70;;;;;;5008862;28;20381;-89
2021/11/20 00:24:22;;;;;;;46.05;19.20;;;9.90;96.70;;;;;;5008781;28;20438;-89
2021/11/20 00:26:48;;;;;;;40.58;18.38;;;9.90;96.70;;;;;;5009053;28;20397;-88
2021/11/20 00:31:46;;;;;;;40.92;18.42;;;9.90;96.70;;;;;;5009151;28;20383;-88
2021/11/20 00:34:17;;;;;;;42.35;18.00;;;9.90;96.70;;;;;;5008540;28;20397;-88
2021/11/20 00:36:44;;;;;;;45.00;19.50;;;9.90;96.70;;;;;;4991280;28;20416;-89
2021/11/20 00:39:12;;;;;;;42.65;18.60;;;9.80;96.60;;;;;;5008675;28;20404;-87
2021/11/20 00:41:38;;;;;;;42.28;18.63;;;9.90;96.60;;;;;;5008777;28;20397;-88
2021/11/20 00:44:04;;;;;;;43.35;20.08;;;9.90;96.60;;;;;;4990977;28;20389;-87
2021/11/20 00:46:33;;;;;;;44.53;18.83;;;9.90;96.60;;;;;;5008676;28;20557;-87
2021/11/20 00:48:59;;;;;;;45.88;19.17;;;9.90;96.50;;;;;;4991013;28;20405;-89
2021/11/20 00:51:27;;;;;;;43.92;17.35;;;9.90;96.50;;;;;;5008250;28;20385;-88
2021/11/20 00:53:54;;;;;;;46.13;18.10;;;9.90;96.50;;;;;;4991493;28;20480;-88
2021/11/20 00:56:21;;;;;;;40.92;18.40;;;9.80;96.50;;;;;;5008441;28;20446;-88
2021/11/20 00:58:48;;;;;;;38.97;18.07;;;9.90;96.50;;;;;;4991295;28;20517;-88
2021/11/20 01:01:26;;;;;;;42.35;18.60;;;9.90;96.50;;;;;;4990919;28;20397;-88
2021/11/20 01:03:52;;;;;;;42.65;18.48;;;9.90;96.40;;;;;;5011574;28;20385;-88
2021/11/20 01:06:18;;;;;;;41.03;18.20;;;9.90;96.40;;;;;;5011702;28;20385;-89
2021/11/20 01:11:45;;;;;;;38.83;17.92;;;9.90;96.30;;;;;;4980772;23;20433;-89
2021/11/20 01:14:14;;;;;;;42.72;18.05;;;9.80;96.20;;;;;;4972522;28;20892;-87
2021/11/20 01:16:41;;;;;;;39.97;17.50;;;9.80;96.20;;;;;;4955703;28;20432;-88
2021/11/20 01:19:07;;;;;;;40.85;18.55;;;9.80;96.20;;;;;;4972605;28;20798;-87
2021/11/20 01:21:34;;;;;;;43.20;18.75;;;9.90;96.20;;;;;;4972977;28;20853;-89
2021/11/20 01:24:01;;;;;;;40.70;18.27;;;9.80;96.20;;;;;;4955134;28;20944;-88
2021/11/20 01:26:27;;;;;;;39.13;17.75;;;9.80;96.10;;;;;;4972747;28;20480;-89
2021/11/20 01:28:55;;;;;;;41.60;18.53;;;9.80;96.20;;;;;;4972813;28;20471;-89
2021/11/20 01:31:24;;;;;;;38.35;17.70;;;9.80;96.20;;;;;;4955550;28;20398;-89
2021/11/20 01:33:50;;;;;;;41.00;18.30;;;9.80;96.10;;;;;;4955686;28;20488;-89
2021/11/20 01:36:19;;;;;;;39.53;18.38;;;9.80;96.10;;;;;;4972704;28;20403;-87
2021/11/20 01:38:46;;;;;;;44.63;19.40;;;9.80;96.10;;;;;;4955313;28;20784;-89
2021/11/20 01:41:13;;;;;;;40.60;18.17;;;9.80;96.10;;;;;;4954492;28;20439;-89
2021/11/20 01:43:39;;;;;;;42.13;18.13;;;9.80;96.10;;;;;;4972179;28;20854;-89
2021/11/20 01:46:19;;;;;;;45.70;18.27;;;9.80;96.00;;;;;;4972037;28;20400;-88
2021/11/20 01:49:09;;;;;;;40.42;18.55;;;9.80;96.00;;;;;;4954524;28;20415;-87
2021/11/20 01:51:41;;;;;;;39.10;16.95;;;9.80;95.90;;;;;;4955005;28;20397;-88
2021/11/20 01:54:07;;;;;;;41.95;19.15;;;9.80;95.90;;;;;;4972293;28;20388;-87
2021/11/20 01:57:05;;;;;;;41.83;18.00;;;9.80;95.80;;;;;;4971984;28;20429;-89
2021/11/20 01:59:34;;;;;;;41.67;17.92;;;9.80;95.80;;;;;;4971781;28;20399;-88
2021/11/20 02:02:39;;;;;;;40.35;17.77;;;9.80;95.80;;;;;;4972072;28;20389;-89
2021/11/20 02:05:14;;;;;;;40.38;18.17;;;9.80;95.80;;;;;;4954494;28;20408;-87
2021/11/20 02:08:06;;;;;;;42.50;18.40;;;9.80;95.70;;;;;;4972112;28;20388;-88
2021/11/20 02:10:58;;;;;;;41.15;18.27;;;9.80;95.70;;;;;;4971988;28;20468;-89
2021/11/20 02:13:27;;;;;;;40.10;18.60;;;9.80;95.60;;;;;;4954246;28;20450;-88
2021/11/20 02:16:05;;;;;;;39.55;17.45;;;9.80;95.60;;;;;;4971704;28;20408;-89
2021/11/20 02:18:35;;;;;;;36.85;17.63;;;9.80;95.60;;;;;;4954374;28;20777;-88
2021/11/20 02:21:24;;;;;;;39.65;17.73;;;9.70;95.60;;;;;;4954843;28;20393;-89
2021/11/20 02:23:50;;;;;;;37.42;16.92;;;9.70;95.60;;;;;;4972007;28;20399;-88
2021/11/20 02:26:16;;;;;;;35.65;17.17;;;9.70;95.60;;;;;;4971227;28;20408;-88
2021/11/20 02:28:42;;;;;;;41.70;19.05;;;9.70;95.60;;;;;;4971772;28;20408;-87
2021/11/20 02:31:08;;;;;;;37.75;17.20;;;9.70;95.50;;;;;;4971387;28;20845;-87
2021/11/20 02:33:38;;;;;;;38.88;17.48;;;9.70;95.50;;;;;;4954717;28;20400;-89
2021/11/20 02:36:08;;;;;;;39.22;17.83;;;9.70;95.40;;;;;;4971100;28;20742;-87
2021/11/20 02:38:40;;;;;;;38.45;17.05;;;9.70;95.40;;;;;;4954459;28;20424;-87
2021/11/20 02:41:08;;;;;;;44.50;18.17;;;9.70;95.40;;;;;;4954196;28;20405;-87
2021/11/20 02:43:37;;;;;;;35.72;17.15;;;9.70;95.40;;;;;;4954789;28;20407;-88
2021/11/20 02:46:05;;;;;;;36.77;18.13;;;9.70;95.40;;;;;;4971036;28;20930;-88
2021/11/20 02:48:31;;;;;;;37.95;17.08;;;9.70;95.40;;;;;;4971234;28;20478;-87
2021/11/20 02:51:13;;;;;;;40.95;18.05;;;9.70;95.30;;;;;;4954161;28;20400;-89
2021/11/20 02:53:57;;;;;;;39.53;18.00;;;9.70;95.40;;;;;;4971016;28;20465;-88
2021/11/20 02:56:26;;;;;;;36.58;17.52;;;9.70;95.40;;;;;;4971517;28;20393;-88
2021/11/20 02:58:52;;;;;;;35.70;17.17;;;9.70;95.30;;;;;;4970783;28;20753;-88
2021/11/20 03:01:30;;;;;;;39.50;17.98;;;9.70;95.30;;;;;;4970869;28;20385;-89
2021/11/20 03:03:56;;;;;;;44.40;17.67;;;9.60;95.20;;;;;;4970989;28;20392;-90
2021/11/20 03:06:22;;;;;;;39.75;18.70;;;9.60;95.20;;;;;;4971011;28;20422;-88
2021/11/20 03:08:48;;;;;;;38.20;18.10;;;9.60;95.20;;;;;;4971108;28;20476;-88
2021/11/20 03:11:16;;;;;;;39.33;17.87;;;9.60;95.20;;;;;;4971138;28;20389;-87
2021/11/20 03:13:45;;;;;;;38.25;17.63;;;9.70;95.20;;;;;;4970960;28;20388;-87
2021/11/20 03:16:11;;;;;;;37.58;17.77;;;9.60;95.20;;;;;;4970864;28;20403;-88
2021/11/20 03:18:36;;;;;;;39.00;17.45;;;9.60;95.10;;;;;;4970855;28;20412;-85
2021/11/20 03:21:04;;;;;;;38.20;16.83;;;9.60;95.10;;;;;;4970489;28;20804;-88
2021/11/20 03:23:34;;;;;;;37.75;17.38;;;9.60;95.00;;;;;;4953998;28;20396;-89
2021/11/20 03:26:00;;;;;;;44.47;18.40;;;9.60;95.00;;;;;;4970479;28;20450;-88
2021/11/20 03:28:25;;;;;;;36.37;17.43;;;9.60;94.90;;;;;;4970374;28;20380;-86
2021/11/20 03:30:51;;;;;;;36.63;17.23;;;9.70;94.90;;;;;;4970659;28;20386;-88
2021/11/20 03:33:18;;;;;;;40.07;17.07;;;9.60;94.70;;;;;;4953221;28;20476;-88
2021/11/20 03:35:45;;;;;;;40.63;18.37;;;9.60;94.80;;;;;;4970856;28;20860;-87
2021/11/20 03:38:11;;;;;;;38.45;16.98;;;9.60;94.70;;;;;;4970900;28;20444;-88
2021/11/20 03:40:38;;;;;;;36.03;16.38;;;9.60;94.60;;;;;;4953579;28;20419;-87
2021/11/20 03:43:05;;;;;;;34.72;16.90;;;9.60;94.50;;;;;;4970111;28;20488;-89
2021/11/20 03:45:33;;;;;;;33.90;16.73;;;9.60;94.50;;;;;;4970552;28;20388;-89
2021/11/20 03:47:59;;;;;;;34.28;16.38;;;9.60;94.40;;;;;;4953059;28;20396;-89
2021/11/20 03:50:27;;;;;;;31.63;16.13;;;9.60;94.40;;;;;;4970517;28;20396;-88
2021/11/20 03:52:53;;;;;;;31.67;15.70;;;9.60;94.40;;;;;;4970075;28;20400;-88
2021/11/20 03:55:24;;;;;;;35.47;15.93;;;9.60;94.30;;;;;;4969988;28;20423;-88
2021/11/20 03:57:49;;;;;;;37.40;15.97;;;9.60;94.20;;;;;;4969927;28;20416;-87
2021/11/20 04:00:18;;;;;;;35.00;16.03;;;9.60;94.00;;;;;;4970468;28;20505;-88
2021/11/20 04:02:46;;;;;;;33.47;15.70;;;9.60;93.90;;;;;;4970191;28;20381;-88
2021/11/20 04:05:12;;;;;;;31.77;15.70;;;9.60;93.80;;;;;;4952713;28;20405;-88
2021/11/20 04:07:38;;;;;;;31.35;15.23;;;9.60;93.80;;;;;;4970327;28;20719;-87
2021/11/20 04:10:06;;;;;;;31.02;15.07;;;9.60;93.90;;;;;;4969890;28;20396;-87
2021/11/20 04:12:32;;;;;;;32.13;15.15;;;9.60;93.80;;;;;;4970547;28;20384;-88
2021/11/20 04:14:58;;;;;;;34.17;14.98;;;9.50;93.80;;;;;;4952546;28;20405;-88
2021/11/20 04:17:24;;;;;;;26.17;14.13;;;9.60;93.70;;;;;;4953174;28;20424;-88
2021/11/20 04:19:49;;;;;;;31.98;14.85;;;9.60;93.60;;;;;;4969756;28;20385;-88
2021/11/20 04:22:15;;;;;;;30.50;15.00;;;9.50;93.40;;;;;;4952956;28;20396;-87
2021/11/20 04:24:41;;;;;;;30.08;14.80;;;9.60;93.50;;;;;;4970328;28;20392;-88
2021/11/20 04:27:08;;;;;;;34.40;14.70;;;9.60;93.60;;;;;;4969934;28;20392;-89
2021/11/20 04:29:33;;;;;;;26.80;14.00;;;9.50;93.60;;;;;;4969965;28;20396;-88
2021/11/20 04:31:59;;;;;;;31.50;14.33;;;9.60;93.70;;;;;;4969887;28;20530;-89
2021/11/20 04:34:25;;;;;;;30.65;15.02;;;9.50;93.70;;;;;;4952939;28;20900;-89
2021/11/20 04:36:50;;;;;;;31.45;14.65;;;9.50;93.60;;;;;;4969910;28;20503;-88
2021/11/20 04:39:16;;;;;;;29.38;14.38;;;9.50;93.30;;;;;;4973377;28;20384;-88
2021/11/20 04:41:41;;;;;;;28.07;14.80;;;9.50;93.30;;;;;;4973220;28;20380;-88
2021/11/20 04:44:08;;;;;;;29.13;14.82;;;9.50;93.20;;;;;;4973170;28;20377;-87
2021/11/20 04:46:33;;;;;;;30.65;16.10;;;9.50;93.00;;;;;;4972826;28;20384;-87
2021/11/20 04:48:59;;;;;;;34.03;15.70;;;9.60;93.10;;;;;;4973167;28;20377;-87
2021/11/20 04:51:25;;;;;;;35.58;16.58;;;9.50;93.20;;;;;;4972736;28;20835;-86
2021/11/20 04:53:52;;;;;;;34.28;15.88;;;9.50;93.30;;;;;;4972697;28;20392;-87
2021/11/20 04:56:22;;;;;;;33.60;15.80;;;9.50;93.30;;;;;;4955735;28;20397;-87
2021/11/20 04:58:49;;;;;;;31.35;16.23;;;9.50;93.30;;;;;;4972894;28;20448;-87
2021/11/20 05:01:19;;;;;;;32.70;16.30;;;9.50;93.40;;;;;;4972868;28;20470;-87
2021/11/20 05:03:45;;;;;;;36.63;16.90;;;9.40;93.40;;;;;;4972486;28;20431;-86
2021/11/20 05:06:11;;;;;;;35.80;17.60;;;9.50;93.50;;;;;;4972586;28;20388;-86
2021/11/20 05:08:36;;;;;;;34.30;16.53;;;9.50;93.40;;;;;;4955135;28;20715;-86
2021/11/20 05:11:02;;;;;;;34.60;16.50;;;9.50;93.40;;;;;;4972660;28;20420;-86
2021/11/20 05:13:29;;;;;;;33.92;17.40;;;9.50;93.40;;;;;;4955200;28;20396;-87
2021/11/20 05:15:57;;;;;;;37.15;17.13;;;9.50;93.20;;;;;;4972732;28;20788;-86
2021/11/20 05:18:23;;;;;;;36.95;16.92;;;9.40;93.20;;;;;;4972370;28;20539;-86
2021/11/20 05:20:50;;;;;;;36.67;16.60;;;9.40;93.10;;;;;;4972134;28;20472;-86
2021/11/20 05:23:17;;;;;;;32.65;16.63;;;9.40;92.90;;;;;;4972465;28;20389;-87
2021/11/20 05:25:44;;;;;;;34.05;15.85;;;9.40;92.90;;;;;;4972816;28;20762;-86
2021/11/20 05:28:11;;;;;;;33.20;16.85;;;9.40;92.90;;;;;;4991794;28;20440;-86
2021/11/20 05:30:39;;;;;;;36.03;16.92;;;9.40;92.90;;;;;;4974266;28;20430;-87
2021/11/20 05:33:09;;;;;;;33.67;16.38;;;9.40;92.90;;;;;;4974222;28;20438;-87
2021/11/20 05:35:36;;;;;;;37.30;17.30;;;9.40;93.00;;;;;;4991067;28;20464;-87
2021/11/20 05:38:03;;;;;;;37.30;16.70;;;9.40;92.90;;;;;;4991695;28;20444;-87
2021/11/20 05:40:30;;;;;;;38.78;17.98;;;9.40;92.90;;;;;;4991187;28;20868;-89
2021/11/20 05:42:59;;;;;;;35.38;16.88;;;9.40;93.10;;;;;;4992307;28;20410;-88
2021/11/20 05:45:30;;;;;;;38.40;16.95;;;9.40;93.20;;;;;;4991718;28;20507;-88
2021/11/20 05:47:56;;;;;;;38.83;17.88;;;9.40;93.20;;;;;;4991320;28;20395;-88
2021/11/20 05:50:25;;;;;;;35.88;17.42;;;9.40;93.20;;;;;;4990444;28;20387;-87
2021/11/20 05:52:52;;;;;;;39.00;16.95;;;9.40;93.20;;;;;;4991871;28;20456;-89
2021/11/20 05:55:20;;;;;;;37.20;17.48;;;9.40;93.30;;;;;;4974332;28;20426;-88
2021/11/20 05:57:46;;;;;;;41.08;19.35;;;9.40;93.30;;;;;;4974042;28;20419;-87
2021/11/20 06:00:16;;;;;;;36.95;17.88;;;9.40;93.20;;;;;;4991678;28;20852;-89
2021/11/20 06:02:42;;;;;;;39.40;17.83;;;9.40;93.20;;;;;;4989949;28;20787;-87
2021/11/20 06:05:08;;;;;;;43.40;18.27;;;9.40;93.20;;;;;;4991171;28;20507;-89
2021/11/20 06:07:34;;;;;;;36.50;17.20;;;9.40;93.20;;;;;;4991262;28;20438;-88
2021/11/20 06:10:00;;;;;;;35.75;17.25;;;9.40;93.10;;;;;;4991753;28;20625;-88
2021/11/20 06:12:27;;;;;;;39.50;17.50;;;9.40;93.20;;;;;;4991231;28;20383;-89
2021/11/20 06:14:53;;;;;;;36.78;17.05;;;9.40;93.00;;;;;;4991384;28;20464;-86
2021/11/20 06:17:19;;;;;;;43.20;17.65;;;9.40;93.00;;;;;;4991221;28;20473;-88
2021/11/20 06:19:44;;;;;;;40.03;17.42;;;9.40;93.10;;;;;;4991124;28;20419;-88
2021/11/20 06:22:10;;;;;;;39.72;16.60;;;9.40;92.90;;;;;;4991320;28;20668;-87
2021/11/20 06:24:36;;;;;;;37.65;17.13;;;9.40;92.90;;;;;;4991233;28;20390;-88
2021/11/20 06:27:02;;;;;;;41.30;16.92;;;9.40;93.00;;;;;;4991510;28;20855;-88
2021/11/20 06:29:28;;;;;;;45.30;17.75;;;9.40;93.10;;;;;;4991418;28;20435;-88
2021/11/20 06:31:53;;;;;;;37.23;17.50;;;9.40;93.00;;;;;;4991429;28;20943;-88
2021/11/20 06:34:20;;;;;;;43.50;17.83;;;9.40;93.00;;;;;;4973913;28;20482;-87
2021/11/20 06:36:46;;;;;;;42.13;17.85;;;9.40;93.00;;;;;;4991177;28;20397;-87
2021/11/20 06:39:14;;;;;;;44.30;17.93;;;9.40;93.00;;;;;;4990814;28;20383;-87
2021/11/20 06:41:40;;;;;;;40.92;16.75;;;9.40;93.00;;;;;;4990392;28;20887;-86
2021/11/20 06:44:05;;;;;;;40.47;18.30;;;9.40;92.90;;;;;;4991101;28;20390;-88
2021/11/20 06:46:32;;;;;;;36.55;16.08;;;9.40;92.80;;;;;;4990700;28;20393;-88
2021/11/20 06:48:57;;;;;;;43.42;17.15;;;9.40;92.60;;;;;;4990962;28;20394;-86
2021/11/20 06:51:23;;;;;;;43.37;18.23;;;9.40;92.70;;;;;;4989878;28;20444;-88
2021/11/20 06:53:49;;;;;;;40.23;17.30;;;9.40;92.60;;;;;;4991083;28;20391;-89
2021/11/20 06:56:26;;;;;;;40.77;16.67;;;9.40;92.80;;;;;;4990485;28;20421;-87
2021/11/20 06:59:04;;;;;;;40.15;16.70;;;9.40;92.70;;;;;;4990767;28;20423;-86
2021/11/20 07:01:32;;;;;;;48.05;18.58;;;9.40;92.60;;;;;;4972720;28;20858;-88
2021/11/20 07:04:04;;;;;;;40.08;17.90;;;9.40;92.70;;;;;;4990576;28;20389;-88
2021/11/20 07:06:46;;;;;;;40.00;16.80;;;9.40;92.60;;;;;;4986944;28;20426;-87
2021/11/20 07:09:13;;;;;;;42.65;18.05;;;9.40;92.60;;;;;;4953427;28;20392;-87
2021/11/20 07:11:39;;;;;;;40.08;17.77;;;9.40;92.40;;;;;;4954094;28;20404;-87
2021/11/20 07:14:05;;;;;;;43.25;17.92;;;9.40;92.50;;;;;;4970533;28;20396;-88
2021/11/20 07:16:31;;;;;;;44.67;17.77;;;9.40;92.50;;;;;;4970993;28;20441;-87
2021/11/20 07:18:57;;;;;;;41.60;17.75;;;9.40;92.20;;;;;;4970584;28;20492;-88
2021/11/20 07:21:27;;;;;;;43.25;17.15;;;9.40;92.40;;;;;;4971066;28;20772;-88
2021/11/20 07:23:58;;;;;;;39.05;17.60;;;9.40;92.10;;;;;;4970590;28;20737;-88
2021/11/20 07:26:25;;;;;;;40.67;17.33;;;9.40;92.20;;;;;;4970479;28;20483;-88
2021/11/20 07:28:51;;;;;;;43.72;17.17;;;9.40;92.10;;;;;;4969635;28;20396;-88
2021/11/20 07:31:18;;;;;;;37.83;16.27;;;9.40;92.20;;;;;;4970531;28;20547;-87
2021/11/20 07:33:44;;;;;;;39.38;17.60;;;9.40;92.50;;;;;;4971149;28;20410;-88
2021/11/20 07:36:11;;;;;;;36.58;17.55;;;9.40;92.50;;;;;;4970547;28;20434;-89
2021/11/20 07:38:41;;;;;;;44.58;17.90;;;9.40;92.50;;;;;;4953607;28;20710;-89
2021/11/20 07:41:09;;;;;;;40.97;17.17;;;9.40;92.30;;;;;;4970495;28;20384;-89
2021/11/20 07:43:37;;;;;;;44.87;18.07;;;9.40;92.40;;;;;;4969968;28;20452;-88
2021/11/20 07:46:08;;;;;;;45.30;17.67;;;9.40;92.30;;;;;;4970290;28;20416;-88
2021/11/20 07:48:37;;;;;;;39.95;17.23;;;9.40;92.40;;;;;;4970715;28;20388;-89
2021/11/20 07:51:05;;;;;;;39.20;17.00;;;9.40;92.30;;;;;;4953151;28;20796;-88
2021/11/20 07:53:31;;;;;;;41.50;16.92;;;9.40;92.40;;;;;;4953262;28;20397;-89
2021/11/20 07:55:58;;;;;;;38.53;17.20;;;9.40;92.40;;;;;;4970416;28;20389;-89
2021/11/20 07:58:24;;;;;;;35.28;16.83;;;9.40;92.30;;;;;;4969982;28;20749;-89
2021/11/20 08:00:50;;;;;;;45.45;17.00;;;9.40;92.20;;;;;;4970464;28;20884;-89
2021/11/20 08:03:17;;;;;;;36.55;16.63;;;9.50;92.00;;;;;;4952917;28;20400;-88
2021/11/20 08:05:43;;;;;;;39.60;16.10;;;9.50;92.00;;;;;;4968516;28;20392;-89
2021/11/20 08:08:10;;;;;;;38.47;16.65;;;9.40;92.10;;;;;;4969962;28;20491;-88
2021/11/20 08:10:37;;;;;;;39.83;17.05;;;9.50;91.70;;;;;;4970115;28;20389;-87
2021/11/20 08:13:03;;;;;;;42.38;16.83;;;9.60;91.60;;;;;;4969085;28;20400;-89
2021/11/20 08:15:30;;;;;;;36.97;16.30;;;9.60;91.60;;;;;;4969983;28;20396;-88
2021/11/20 08:17:56;;;;;;;40.97;17.13;;;9.60;91.70;;;;;;4952963;28;20789;-88
2021/11/20 08:20:26;;;;;;;39.33;16.50;;;9.50;91.60;;;;;;4970312;28;20384;-88
2021/11/20 08:22:52;;;;;;;39.13;17.38;;;9.60;91.60;;;;;;4969829;28;20398;-88
2021/11/20 08:25:22;;;;;;;36.73;16.23;;;9.60;91.70;;;;;;4969496;28;20492;-88
2021/11/20 08:27:48;;;;;;;36.90;15.82;;;9.60;91.60;;;;;;4969722;28;20845;-88
2021/11/20 08:30:17;;;;;;;39.95;16.90;;;9.60;91.50;;;;;;4969374;28;20454;-88
2021/11/20 08:32:44;;;;;;;40.00;16.02;;;9.60;91.50;;;;;;4952460;28;20945;-88
2021/11/20 08:35:10;;;;;;;34.40;15.98;;;9.70;91.10;;;;;;4969616;28;20384;-88
2021/11/20 08:37:36;;;;;;;33.60;15.38;;;9.70;91.00;;;;;;4963079;28;20418;-89
2021/11/20 08:40:06;;;;;;;34.90;15.93;;;9.70;90.70;;;;;;4969543;28;20395;-87
2021/11/20 08:42:32;;;;;;;32.85;14.82;;;9.70;90.70;;;;;;4969552;28;20768;-84
2021/11/20 08:44:58;;;;;;;33.22;15.05;;;9.70;90.60;;;;;;4968189;28;20395;-85
2021/11/20 08:47:23;;;;;;;34.47;15.30;;;9.70;90.40;;;;;;4969763;28;20392;-87
2021/11/20 08:49:49;;;;;;;35.03;15.45;;;9.70;90.60;;;;;;4968408;28;20397;-87
2021/11/20 08:52:14;;;;;;;31.27;14.70;;;9.80;90.90;;;;;;4969485;28;20501;-87
2021/11/20 08:54:40;;;;;;;36.28;15.25;;;9.80;90.70;;;;;;4969789;28;20442;-87
2021/11/20 08:57:06;;;;;;;33.90;14.90;;;9.80;90.70;;;;;;4969425;28;20411;-88
2021/11/20 08:59:32;;;;;;;35.97;15.13;;;9.70;90.80;;;;;;4969928;28;20391;-86
2021/11/20 09:02:04;;;;;;;34.95;15.85;;;9.80;90.70;;;;;;4967927;28;20880;-88
2021/11/20 09:04:35;;;;;;;32.78;15.32;;;9.80;90.70;;;;;;4969665;28;20384;-88
2021/11/20 09:07:24;;;;;;;40.08;17.17;;;9.80;90.30;;;;;;4969300;28;20392;-86
2021/11/20 09:09:55;;;;;;;36.75;15.65;;;9.80;90.40;;;;;;4988498;28;20451;-88
2021/11/20 09:12:40;;;;;;;38.60;16.63;;;9.80;90.40;;;;;;4969408;28;20730;-88
2021/11/20 09:15:32;;;;;;;36.70;16.70;;;9.80;90.50;;;;;;4969410;28;20547;-88
2021/11/20 09:17:58;;;;;;;38.50;15.95;;;9.80;90.70;;;;;;4975660;28;20424;-88
2021/11/20 09:20:25;;;;;;;35.33;16.42;;;9.80;90.40;;;;;;4968913;28;20392;-86
2021/11/20 09:22:51;;;;;;;35.00;15.20;;;9.80;90.70;;;;;;4968216;28;20523;-88
2021/11/20 09:25:17;;;;;;;37.70;16.20;;;9.80;90.90;;;;;;4972437;28;20494;-88
2021/11/20 09:27:44;;;;;;;37.00;16.58;;;9.80;90.90;;;;;;4972791;28;20393;-87
2021/11/20 09:30:15;;;;;;;33.80;15.05;;;9.80;90.90;;;;;;4972301;28;20397;-88
2021/11/20 09:32:40;;;;;;;38.40;16.25;;;9.80;91.00;;;;;;4973862;28;20452;-88
2021/11/20 09:35:07;;;;;;;36.97;16.30;;;9.80;90.60;;;;;;4992238;28;20472;-87
2021/11/20 09:37:32;;;;;;;36.85;16.25;;;9.80;90.60;;;;;;4991160;28;20466;-85
2021/11/20 09:39:58;;;;;;;36.60;15.45;;;9.80;90.50;;;;;;4991650;28;20529;-86
2021/11/20 09:42:33;;;;;;;36.30;16.30;;;9.80;90.60;;;;;;4991402;28;20744;-88
2021/11/20 09:45:12;;;;;;;33.40;15.50;;;9.80;90.50;;;;;;4991482;28;20401;-88
2021/11/20 09:47:47;;;;;;;33.63;15.02;;;9.80;90.20;;;;;;4991568;28;20391;-87
2021/11/20 09:50:21;;;;;;;36.83;15.77;;;9.90;90.00;;;;;;4991658;28;20459;-87
2021/11/20 09:52:49;;;;;;;33.15;15.68;;;9.90;90.00;;;;;;4974038;28;20481;-88
2021/11/20 09:55:22;;;;;;;37.17;15.77;;;9.90;89.80;;;;;;4990467;28;20401;-88
2021/11/20 09:58:03;;;;;;;27.48;14.15;;;9.90;89.40;;;;;;4974022;28;20914;-87
2021/11/20 10:01:10;;;;;;;32.90;14.13;;;9.90;88.40;;;;;;4990876;28;20414;-88
2021/11/20 10:03:36;;;;;;;33.67;15.00;;;9.90;88.40;;;;;;4973485;28;20848;-89
2021/11/20 10:06:06;;;;;;;31.75;14.82;;;10.00;88.50;;;;;;4989929;28;20482;-87
2021/11/20 10:08:35;;;;;;;30.17;13.90;;;9.90;88.10;;;;;;4991581;28;20500;-86
2021/11/20 10:11:09;;;;;;;28.92;14.20;;;9.90;88.10;;;;;;4991391;28;20379;-87
2021/11/20 10:14:00;;;;;;;28.23;14.20;;;10.00;88.30;;;;;;4991275;28;20472;-88
2021/11/20 10:16:48;;;;;;;32.33;14.77;;;10.00;88.30;;;;;;4991441;28;20443;-88
2021/11/20 10:19:17;;;;;;;27.83;13.52;;;10.00;88.50;;;;;;4991020;28;20403;-87
2021/11/20 10:21:53;;;;;;;30.13;14.38;;;10.00;88.10;;;;;;4991228;28;20401;-87
2021/11/20 10:24:37;;;;;;;29.58;14.63;;;10.00;88.40;;;;;;4990726;28;20417;-86
2021/11/20 10:27:18;;;;;;;35.47;15.82;;;10.00;88.30;;;;;;4973355;28;20406;-87
2021/11/20 10:29:59;;;;;;;32.45;14.93;;;10.10;88.40;;;;;;4991119;28;20390;-88
2021/11/20 10:32:57;;;;;;;30.90;14.95;;;10.00;88.50;;;;;;4990707;28;20410;-86
2021/11/20 10:35:31;;;;;;;34.10;15.10;;;10.10;88.50;;;;;;4979306;28;20437;-88
2021/11/20 10:38:00;;;;;;;33.30;15.33;;;10.10;88.60;;;;;;4973169;28;20509;-88
2021/11/20 10:40:31;;;;;;;30.33;13.45;;;10.10;88.20;;;;;;4990641;28;20399;-87
2021/11/20 10:43:02;;;;;;;31.70;14.48;;;10.10;87.80;;;;;;4989946;28;20744;-87
2021/11/20 10:45:59;;;;;;;31.38;13.85;;;10.10;87.80;;;;;;4989268;28;20401;-88
2021/11/20 10:49:07;;;;;;;30.80;14.25;;;10.00;87.60;;;;;;4990758;28;20447;-87
2021/11/20 10:51:44;;;;;;;32.90;15.65;;;10.00;88.20;;;;;;4989965;28;20399;-88
2021/11/20 10:54:16;;;;;;;32.03;14.23;;;10.00;87.90;;;;;;4990434;28;20395;-88
2021/11/20 10:56:50;;;;;;;29.95;13.95;;;10.00;87.60;;;;;;4989577;28;20395;-88
2021/11/20 10:59:40;;;;;;;30.52;13.65;;;10.00;87.80;;;;;;4989440;28;20423;-89
2021/11/20 11:02:41;;;;;;;26.52;13.20;;;10.00;87.50;;;;;;4990913;28;20392;-90
2021/11/20 11:05:34;;;;;;;29.60;13.63;;;10.00;87.40;;;;;;4990936;28;20422;-89
2021/11/20 11:08:23;;;;;;;25.42;12.10;;;10.10;87.90;;;;;;4990152;28;20478;-86
2021/11/20 11:11:01;;;;;;;27.45;12.55;;;10.00;87.30;;;;;;4989583;28;20399;-87
2021/11/20 11:13:52;;;;;;;25.47;12.73;;;10.00;87.40;;;;;;4989158;28;20452;-89
2021/11/20 11:16:27;;;;;;;24.45;12.30;;;10.00;87.60;;;;;;4990397;28;20477;-88
2021/11/20 11:19:08;;;;;;;29.08;13.05;;;10.00;87.60;;;;;;4972969;28;20441;-87
2021/11/20 11:21:43;;;;;;;27.25;12.65;;;10.00;87.80;;;;;;4973042;28;20462;-87
2021/11/20 11:24:45;;;;;;;33.42;13.00;;;10.00;87.70;;;;;;4990600;28;20398;-88
2021/11/20 11:27:14;;;;;;;27.13;13.60;;;10.10;87.90;;;;;;4990220;28;20467;-88
2021/11/20 11:30:09;;;;;;;25.70;12.23;;;10.00;87.60;;;;;;4990293;28;20394;-89
2021/11/20 11:32:38;;;;;;;23.10;11.88;;;10.00;87.70;;;;;;4989381;28;20759;-89
2021/11/20 11:35:22;;;;;;;29.55;13.23;;;10.10;87.60;;;;;;4990144;28;20463;-90
2021/11/20 11:38:08;;;;;;;25.60;12.30;;;10.10;87.60;;;;;;4990476;28;20451;-90
2021/11/20 11:41:01;;;;;;;25.55;11.95;;;10.10;87.60;;;;;;4972718;28;20399;-89
2021/11/20 11:43:36;;;;;;;22.85;10.98;;;10.10;87.30;;;;;;4990073;28;20395;-88
2021/11/20 11:46:26;;;;;;;24.33;10.52;;;10.00;87.20;;;;;;4989310;28;20890;-88
2021/11/20 11:49:07;;;;;;;20.90;9.93;;;10.00;86.80;;;;;;4989771;28;20465;-89
2021/11/20 11:51:55;;;;;;;21.80;10.45;;;10.10;87.30;;;;;;4990227;28;20394;-89
2021/11/20 11:54:38;;;;;;;23.42;10.80;;;10.10;87.10;;;;;;4990029;28;20410;-91
2021/11/20 11:57:23;;;;;;;20.77;10.47;;;10.00;86.40;;;;;;4972577;28;20538;-90
2021/11/20 12:00:17;;;;;;;19.08;8.95;;;10.00;86.40;;;;;;4990024;28;20454;-90
2021/11/20 12:02:50;;;;;;;17.70;9.63;;;10.00;86.20;;;;;;4988988;28;20446;-88
2021/11/20 12:05:33;;;;;;;19.42;10.15;;;10.00;86.30;;;;;;4990154;28;20434;-88
2021/11/20 12:08:31;;;;;;;18.75;10.10;;;10.00;87.00;;;;;;4988472;28;20418;-90
2021/11/20 12:11:09;;;;;;;18.77;9.23;;;10.00;86.60;;;;;;4989711;28;20473;-86
2021/11/20 12:13:37;;;;;;;18.40;9.30;;;10.00;86.20;;;;;;4989948;28;20415;-91
2021/11/20 12:16:30;;;;;;;16.85;8.93;;;10.00;86.80;;;;;;4984141;28;20400;-91
2021/11/20 12:18:56;;;;;;;19.65;9.60;;;10.00;86.40;;;;;;4972366;28;20504;-86
2021/11/20 12:21:53;;;;;;;19.83;9.93;;;9.90;86.50;;;;;;4970312;28;20487;-87
2021/11/20 12:24:30;;;;;;;15.53;9.40;;;10.00;86.90;;;;;;4952920;28;20488;-89
2021/11/20 12:27:05;;;;;;;19.50;9.53;;;10.00;86.70;;;;;;4953334;28;20400;-91
2021/11/20 12:29:46;;;;;;;18.80;9.88;;;10.00;86.70;;;;;;4970049;28;20389;-90
2021/11/20 12:32:35;;;;;;;13.15;7.85;;;10.00;86.50;;;;;;4969926;28;20395;-88
2021/11/20 12:35:21;;;;;;;17.80;8.23;;;9.90;85.70;;;;;;4970026;28;20396;-89
2021/11/20 12:38:01;;;;;;;19.35;9.13;;;9.90;85.40;;;;;;4969867;28;20465;-87
2021/11/20 12:40:57;;;;;;;12.93;8.20;;;9.90;85.70;;;;;;4970382;28;20400;-89
2021/11/20 12:43:25;;;;;;;13.88;7.70;;;9.90;86.10;;;;;;4952833;28;20404;-88
2021/11/20 12:46:10;;;;;;;13.15;7.57;;;9.80;85.70;;;;;;4969792;28;20722;-87
2021/11/20 12:49:05;;;;;;;12.23;7.28;;;9.80;84.90;;;;;;4970220;28;20407;-89
2021/11/20 12:51:52;;;;;;;13.82;8.13;;;9.80;85.60;;;;;;4952949;28;20400;-88
2021/11/20 12:54:38;;;;;;;12.67;7.60;;;9.80;85.60;;;;;;4952849;28;20500;-89
2021/11/20 12:57:41;;;;;;;11.98;7.10;;;9.80;85.70;;;;;;4969736;28;20396;-88
2021/11/20 13:00:38;;;;;;;12.45;7.30;;;9.80;85.60;;;;;;4973034;28;20389;-87
2021/11/20 13:03:12;;;;;;;10.75;6.78;;;9.70;85.90;;;;;;4965115;28;20408;-90
2021/11/20 13:05:37;;;;;;;10.93;6.77;;;9.70;85.10;;;;;;4955983;28;20396;-90